createdAt,value
2023-03-05T00:01:22.594Z,22.42
2023-03-05T00:02:55.381Z,20.65
2023-03-05T00:04:28.118Z,22.90
2023-03-05T00:05:59.931Z,21.20
2023-03-05T00:07:32.941Z,23.30
2023-03-05T00:09:07.284Z,21.02
2023-03-05T00:10:39.991Z,22.83
2023-03-05T00:12:12.866Z,23.08
2023-03-05T00:13:44.656Z,27.77
2023-03-05T00:15:17.503Z,22.45
2023-03-05T00:16:50.199Z,23.15
2023-03-05T00:18:22.503Z,23.23
2023-03-05T00:19:56.997Z,25.95
2023-03-05T00:21:32.187Z,25.80
2023-03-05T00:23:04.889Z,23.40
2023-03-05T00:24:38.978Z,24.55
2023-03-05T00:26:10.744Z,27.52
2023-03-05T00:27:43.422Z,23.10
2023-03-05T00:29:19.206Z,23.23
2023-03-05T00:30:51.009Z,25.88
2023-03-05T00:32:23.911Z,25.13
2023-03-05T00:33:57.336Z,27.73
2023-03-05T00:35:30.109Z,25.92
2023-03-05T00:37:02.964Z,22.95
2023-03-05T00:38:34.881Z,24.70
2023-03-05T00:40:10.914Z,24.85
2023-03-05T00:41:42.661Z,27.42
2023-03-05T00:43:15.375Z,27.42
2023-03-05T00:44:48.060Z,26.50
2023-03-05T00:46:19.901Z,26.33
2023-03-05T00:47:52.666Z,27.58
2023-03-05T00:49:25.466Z,26.33
2023-03-05T00:50:58.164Z,25.77
2023-03-05T00:52:31.093Z,25.23
2023-03-05T00:54:04.114Z,27.38
2023-03-05T00:55:38.158Z,26.63
2023-03-05T00:57:10.894Z,29.00
2023-03-05T00:58:43.597Z,25.00
2023-03-05T01:00:17.314Z,26.48
2023-03-05T01:01:50.184Z,27.40
2023-03-05T01:03:22.994Z,25.63
2023-03-05T01:04:55.783Z,27.30
2023-03-05T01:06:29.366Z,30.80
2023-03-05T01:08:02.492Z,26.35
2023-03-05T01:09:35.255Z,30.00
2023-03-05T01:11:09.726Z,30.45
2023-03-05T01:12:41.478Z,31.60
2023-03-05T01:14:14.335Z,32.83
2023-03-05T01:15:47.724Z,29.60
2023-03-05T01:17:20.512Z,32.10
2023-03-05T01:18:53.309Z,29.95
2023-03-05T01:20:26.059Z,32.38
2023-03-05T01:21:58.800Z,27.80
2023-03-05T01:23:31.551Z,29.55
2023-03-05T01:25:04.456Z,30.48
2023-03-05T01:26:38.528Z,30.65
2023-03-05T01:28:10.958Z,26.90
2023-03-05T01:29:43.651Z,30.42
2023-03-05T01:31:16.443Z,30.08
2023-03-05T01:32:48.219Z,29.35
2023-03-05T01:34:21.326Z,34.70
2023-03-05T01:35:54.142Z,30.95
2023-03-05T01:37:25.922Z,27.02
2023-03-05T01:38:58.682Z,28.30
2023-03-05T01:40:31.524Z,29.55
2023-03-05T01:42:06.145Z,29.13
2023-03-05T01:43:38.995Z,28.58
2023-03-05T01:45:13.692Z,27.25
2023-03-05T01:46:46.382Z,30.77
2023-03-05T01:48:19.131Z,28.13
2023-03-05T01:49:52.348Z,30.42
2023-03-05T01:51:27.994Z,30.55
2023-03-05T01:53:04.907Z,29.10
2023-03-05T01:54:41.633Z,30.80
2023-03-05T01:56:13.430Z,30.40
2023-03-05T01:57:50.861Z,30.02
2023-03-05T01:59:25.735Z,30.48
2023-03-05T02:00:58.542Z,28.95
2023-03-05T02:02:31.483Z,31.77
2023-03-05T02:04:03.891Z,27.85
2023-03-05T02:05:39.057Z,30.23
2023-03-05T02:07:12.631Z,28.48
2023-03-05T02:08:44.415Z,28.05
2023-03-05T02:10:19.352Z,26.92
2023-03-05T02:11:52.903Z,26.35
2023-03-05T02:13:30.945Z,28.00
2023-03-05T02:15:03.904Z,28.30
2023-03-05T02:16:37.911Z,27.05
2023-03-05T02:18:11.538Z,26.55
2023-03-05T02:19:49.405Z,29.77
2023-03-05T02:21:36.529Z,32.53
2023-03-05T02:23:09.351Z,27.25
2023-03-05T02:24:42.084Z,29.95
2023-03-05T02:26:14.812Z,31.17
2023-03-05T02:27:52.577Z,26.67
2023-03-05T02:29:25.845Z,27.42
2023-03-05T02:30:58.822Z,28.90
2023-03-05T02:32:30.619Z,27.90
2023-03-05T02:34:03.351Z,29.63
2023-03-05T02:35:36.081Z,30.33
2023-03-05T02:37:10.553Z,28.60
2023-03-05T02:38:44.221Z,24.80
2023-03-05T02:40:17.439Z,26.10
2023-03-05T02:41:50.136Z,28.17
2023-03-05T02:43:21.927Z,26.83
2023-03-05T02:44:54.639Z,25.65
2023-03-05T02:46:27.376Z,27.73
2023-03-05T02:48:00.164Z,28.60
2023-03-05T02:49:32.853Z,26.60
2023-03-05T02:51:07.563Z,23.00
2023-03-05T02:52:41.603Z,23.05
2023-03-05T02:54:14.322Z,25.15
2023-03-05T02:55:47.271Z,22.80
2023-03-05T02:57:20.656Z,23.58
2023-03-05T02:58:53.415Z,24.20
2023-03-05T03:00:26.417Z,26.10
2023-03-05T03:01:59.118Z,25.60
2023-03-05T03:03:31.222Z,28.52
2023-03-05T03:05:04.248Z,26.02
2023-03-05T03:06:36.956Z,28.98
2023-03-05T03:08:11.380Z,25.88
2023-03-05T03:09:44.162Z,26.30
2023-03-05T03:11:15.948Z,29.98
2023-03-05T03:12:48.693Z,26.77
2023-03-05T03:14:21.720Z,29.67
2023-03-05T03:16:03.170Z,29.50
2023-03-05T03:17:36.539Z,28.45
2023-03-05T03:19:09.237Z,28.50
2023-03-05T03:20:41.995Z,27.85
2023-03-05T03:22:16.578Z,24.55
2023-03-05T03:23:50.937Z,26.30
2023-03-05T03:25:23.576Z,27.10
2023-03-05T03:26:56.297Z,25.52
2023-03-05T03:28:28.179Z,26.92
2023-03-05T03:30:04.586Z,27.40
2023-03-05T03:31:40.043Z,29.55
2023-03-05T03:33:12.943Z,26.50
2023-03-05T03:34:44.882Z,32.08
2023-03-05T03:36:17.626Z,27.67
2023-03-05T03:37:50.333Z,26.30
2023-03-05T03:39:25.412Z,29.08
2023-03-05T03:40:58.196Z,25.92
2023-03-05T03:42:30.892Z,26.88
2023-03-05T03:44:04.902Z,25.40
2023-03-05T03:45:41.748Z,29.10
2023-03-05T03:47:14.514Z,26.05
2023-03-05T03:48:51.053Z,24.30
2023-03-05T03:50:24.899Z,29.80
2023-03-05T03:51:58.090Z,27.42
2023-03-05T03:53:30.791Z,28.85
2023-03-05T03:55:04.479Z,28.25
2023-03-05T03:56:37.216Z,27.77
2023-03-05T03:58:10.399Z,25.35
2023-03-05T03:59:45.353Z,26.98
2023-03-05T04:01:18.073Z,27.70
2023-03-05T04:02:49.994Z,26.48
2023-03-05T04:04:22.804Z,25.20
2023-03-05T04:05:55.533Z,26.33
2023-03-05T04:07:28.282Z,27.42
2023-03-05T04:09:01.163Z,27.15
2023-03-05T04:10:35.204Z,31.75
2023-03-05T04:12:08.582Z,29.27
2023-03-05T04:13:41.296Z,25.80
2023-03-05T04:15:14.006Z,29.67
2023-03-05T04:16:46.721Z,26.13
2023-03-05T04:18:19.473Z,29.00
2023-03-05T04:19:53.239Z,28.77
2023-03-05T04:21:26.082Z,29.88
2023-03-05T04:22:58.776Z,26.27
2023-03-05T04:24:30.743Z,26.02
2023-03-05T04:26:05.343Z,28.63
2023-03-05T04:27:40.049Z,34.03
2023-03-05T04:29:12.790Z,30.55
2023-03-05T04:30:45.622Z,27.10
2023-03-05T04:32:23.040Z,26.13
2023-03-05T04:33:55.864Z,28.75
2023-03-05T04:35:28.797Z,26.70
2023-03-05T04:37:01.548Z,28.80
2023-03-05T04:38:34.241Z,29.00
2023-03-05T04:40:07.455Z,27.00
2023-03-05T04:41:41.532Z,25.38
2023-03-05T04:43:14.621Z,24.90
2023-03-05T04:44:46.705Z,28.05
2023-03-05T04:46:19.453Z,27.15
2023-03-05T04:47:52.231Z,27.95
2023-03-05T04:49:24.930Z,27.77
2023-03-05T04:50:58.411Z,26.52
2023-03-05T04:52:31.442Z,26.85
2023-03-05T04:54:04.259Z,24.48
2023-03-05T04:55:36.945Z,23.48
2023-03-05T04:57:11.025Z,22.23
2023-03-05T04:58:43.926Z,21.88
2023-03-05T05:00:18.088Z,25.10
2023-03-05T05:01:49.890Z,22.73
2023-03-05T05:03:22.710Z,22.85
2023-03-05T05:04:54.576Z,25.10
2023-03-05T05:06:27.314Z,21.45
2023-03-05T05:07:59.207Z,23.40
2023-03-05T05:09:31.882Z,28.05
2023-03-05T05:11:07.140Z,23.65
2023-03-05T05:12:41.236Z,23.67
2023-03-05T05:14:14.165Z,21.63
2023-03-05T05:15:45.960Z,25.98
2023-03-05T05:17:18.795Z,21.67
2023-03-05T05:18:51.505Z,22.65
2023-03-05T05:20:24.256Z,21.35
2023-03-05T05:21:56.940Z,22.40
2023-03-05T05:23:29.647Z,22.33
2023-03-05T05:25:03.077Z,19.15
2023-03-05T05:26:35.935Z,19.92
2023-03-05T05:28:10.830Z,23.02
2023-03-05T05:29:45.171Z,20.95
2023-03-05T05:31:19.029Z,23.80
2023-03-05T05:32:50.794Z,19.77
2023-03-05T05:34:25.025Z,20.38
2023-03-05T05:35:57.830Z,19.65
2023-03-05T05:37:29.935Z,19.75
2023-03-05T05:39:02.619Z,21.38
2023-03-05T05:40:34.377Z,17.42
2023-03-05T05:42:07.582Z,25.90
2023-03-05T05:43:41.259Z,22.42
2023-03-05T05:45:14.111Z,20.73
2023-03-05T05:46:46.909Z,20.80
2023-03-05T05:48:19.619Z,21.90
2023-03-05T05:49:52.420Z,21.23
2023-03-05T05:51:24.587Z,23.95
2023-03-05T05:52:57.272Z,22.65
2023-03-05T05:54:30.058Z,26.30
2023-03-05T05:56:04.471Z,18.17
2023-03-05T05:57:37.210Z,22.63
2023-03-05T05:59:11.996Z,19.75
2023-03-05T06:00:44.807Z,16.35
2023-03-05T06:02:17.560Z,19.60
2023-03-05T06:03:50.446Z,18.65
2023-03-05T06:05:23.356Z,17.25
2023-03-05T06:06:56.082Z,18.85
2023-03-05T06:08:28.776Z,23.48
2023-03-05T06:10:01.510Z,20.27
2023-03-05T06:11:33.979Z,19.35
2023-03-05T06:13:06.905Z,21.95
2023-03-05T06:14:40.945Z,19.05
2023-03-05T06:16:15.421Z,19.75
2023-03-05T06:17:48.638Z,18.77
2023-03-05T06:19:20.373Z,20.02
2023-03-05T06:20:56.841Z,21.60
2023-03-05T06:22:29.539Z,19.73
2023-03-05T06:24:02.243Z,19.33
2023-03-05T06:25:34.932Z,21.40
2023-03-05T06:27:07.792Z,18.63
2023-03-05T06:28:40.104Z,17.20
2023-03-05T06:30:14.849Z,20.40
2023-03-05T06:31:47.534Z,17.67
2023-03-05T06:33:20.465Z,16.55
2023-03-05T06:34:53.213Z,16.83
2023-03-05T06:36:26.741Z,19.80
2023-03-05T06:37:59.464Z,19.92
2023-03-05T06:39:32.394Z,17.50
2023-03-05T06:41:11.474Z,16.88
2023-03-05T06:42:44.206Z,16.55
2023-03-05T06:44:16.898Z,21.70
2023-03-05T06:45:50.947Z,16.33
2023-03-05T06:47:23.712Z,20.90
2023-03-05T06:48:58.170Z,16.48
2023-03-05T06:50:30.888Z,23.83
2023-03-05T06:52:04.355Z,18.42
2023-03-05T06:53:36.146Z,20.00
2023-03-05T06:55:10.120Z,23.38
2023-03-05T06:56:44.130Z,17.60
2023-03-05T06:58:16.872Z,18.58
2023-03-05T06:59:49.652Z,17.98
2023-03-05T07:01:24.234Z,16.80
2023-03-05T07:02:56.955Z,17.30
2023-03-05T07:04:29.710Z,16.55
2023-03-05T07:06:04.201Z,16.63
2023-03-05T07:07:37.263Z,18.88
2023-03-05T07:09:13.966Z,17.17
2023-03-05T07:10:46.676Z,16.33
2023-03-05T07:12:19.371Z,22.65
2023-03-05T07:13:52.500Z,22.00
2023-03-05T07:15:25.280Z,16.00
2023-03-05T07:16:59.304Z,15.52
2023-03-05T07:18:32.055Z,17.65
2023-03-05T07:20:05.421Z,17.05
2023-03-05T07:21:39.885Z,17.85
2023-03-05T07:23:13.103Z,17.27
2023-03-05T07:24:45.848Z,14.65
2023-03-05T07:26:18.886Z,15.15
2023-03-05T07:27:51.907Z,14.80
2023-03-05T07:29:24.646Z,14.27
2023-03-05T07:30:58.925Z,16.13
2023-03-05T07:32:35.699Z,14.40
2023-03-05T07:34:08.461Z,14.02
2023-03-05T07:35:42.192Z,17.15
2023-03-05T07:37:15.492Z,14.27
2023-03-05T07:38:48.314Z,12.90
2023-03-05T07:40:21.826Z,12.95
2023-03-05T07:41:54.511Z,12.57
2023-03-05T07:43:27.188Z,14.63
2023-03-05T07:44:59.888Z,12.70
2023-03-05T07:46:34.781Z,16.38
2023-03-05T07:48:13.111Z,14.10
2023-03-05T07:49:46.139Z,10.57
2023-03-05T07:51:20.361Z,13.18
2023-03-05T07:52:53.091Z,13.15
2023-03-05T07:54:25.768Z,11.52
2023-03-05T07:55:58.770Z,15.27
2023-03-05T07:57:31.524Z,11.30
2023-03-05T07:59:06.514Z,8.68
2023-03-05T08:00:39.315Z,8.20
2023-03-05T08:02:13.205Z,10.02
2023-03-05T08:03:47.302Z,7.13
2023-03-05T08:05:20.045Z,9.85
2023-03-05T08:06:53.151Z,9.68
2023-03-05T08:08:25.853Z,9.38
2023-03-05T08:09:58.529Z,9.63
2023-03-05T08:11:31.222Z,8.85
2023-03-05T08:13:04.031Z,8.27
2023-03-05T08:14:36.973Z,9.73
2023-03-05T08:16:12.513Z,11.90
2023-03-05T08:17:45.229Z,11.68
2023-03-05T08:19:20.166Z,13.90
2023-03-05T08:20:52.866Z,10.80
2023-03-05T08:22:25.599Z,10.55
2023-03-05T08:23:59.180Z,10.98
2023-03-05T08:25:31.988Z,9.02
2023-03-05T08:27:04.830Z,13.52
2023-03-05T08:28:37.516Z,10.38
2023-03-05T08:30:13.758Z,7.85
2023-03-05T08:31:47.118Z,9.98
2023-03-05T08:33:19.822Z,9.93
2023-03-05T08:34:58.317Z,11.80
2023-03-05T08:36:31.072Z,13.52
2023-03-05T08:38:03.793Z,9.95
2023-03-05T08:39:36.500Z,10.27
2023-03-05T08:41:09.222Z,11.02
2023-03-05T08:42:41.920Z,10.02
2023-03-05T08:44:14.624Z,10.55
2023-03-05T08:45:49.499Z,11.45
2023-03-05T08:47:25.327Z,11.32
2023-03-05T08:48:58.057Z,11.23
2023-03-05T08:50:32.111Z,11.90
2023-03-05T08:52:04.941Z,12.13
2023-03-05T08:53:37.668Z,15.75
2023-03-05T08:55:12.015Z,14.98
2023-03-05T08:56:44.799Z,12.05
2023-03-05T08:58:17.491Z,10.70
2023-03-05T08:59:50.278Z,10.23
2023-03-05T09:01:23.832Z,11.63
2023-03-05T09:02:56.677Z,13.88
2023-03-05T09:04:29.495Z,12.90
2023-03-05T09:06:05.385Z,11.60
2023-03-05T09:07:38.198Z,12.68
2023-03-05T09:09:11.128Z,10.95
2023-03-05T09:10:44.062Z,11.77
2023-03-05T09:12:16.821Z,12.52
2023-03-05T09:13:49.630Z,12.15
2023-03-05T09:15:22.418Z,14.82
2023-03-05T09:16:55.131Z,12.38
2023-03-05T09:18:28.769Z,14.60
2023-03-05T09:20:01.667Z,11.45
2023-03-05T09:21:35.802Z,10.20
2023-03-05T09:23:08.526Z,10.20
2023-03-05T09:24:41.245Z,11.30
2023-03-05T09:26:15.592Z,10.63
2023-03-05T09:27:48.437Z,11.85
2023-03-05T09:29:21.181Z,10.90
2023-03-05T09:30:53.875Z,10.32
2023-03-05T09:32:26.724Z,8.73
2023-03-05T09:33:59.433Z,13.10
2023-03-05T09:35:35.757Z,12.75
2023-03-05T09:37:10.300Z,11.38
2023-03-05T09:38:43.009Z,11.50
2023-03-05T09:40:19.040Z,13.13
2023-03-05T09:42:14.190Z,11.35
2023-03-05T09:43:55.173Z,14.23
2023-03-05T09:45:30.047Z,13.18
2023-03-05T09:47:19.289Z,13.68
2023-03-05T09:48:53.673Z,13.45
2023-03-05T09:50:41.451Z,12.43
2023-03-05T09:52:21.676Z,14.10
2023-03-05T09:54:03.137Z,15.18
2023-03-05T09:55:40.284Z,13.82
2023-03-05T09:57:18.410Z,15.70
2023-03-05T09:58:56.012Z,13.30
2023-03-05T10:00:35.293Z,13.90
2023-03-05T10:02:17.957Z,14.18
2023-03-05T10:03:57.736Z,13.55
2023-03-05T10:05:51.405Z,15.25
2023-03-05T10:07:28.512Z,12.00
2023-03-05T10:09:08.413Z,12.40
2023-03-05T10:10:44.256Z,13.57
2023-03-05T10:12:25.245Z,14.32
2023-03-05T10:13:58.198Z,14.75
2023-03-05T10:15:39.257Z,14.60
2023-03-05T10:17:37.136Z,12.48
2023-03-05T10:19:16.776Z,13.63
2023-03-05T10:21:00.166Z,13.77
2023-03-05T10:22:43.866Z,13.25
2023-03-05T10:24:24.730Z,14.85
2023-03-05T10:26:11.759Z,14.18
2023-03-05T10:27:49.356Z,12.25
2023-03-05T10:29:40.645Z,13.20
2023-03-05T10:31:25.065Z,12.80
2023-03-05T10:33:07.037Z,10.27
2023-03-05T10:34:54.275Z,13.05
2023-03-05T10:36:51.533Z,12.18
2023-03-05T10:39:02.654Z,10.30
2023-03-05T10:40:39.393Z,14.40
2023-03-05T10:42:21.111Z,14.70
2023-03-05T10:44:00.723Z,11.50
2023-03-05T10:45:37.444Z,10.50
2023-03-05T10:47:17.508Z,9.88
2023-03-05T10:48:54.087Z,9.20
2023-03-05T10:50:29.748Z,10.50
2023-03-05T10:52:08.765Z,8.80
2023-03-05T10:53:55.692Z,10.30
2023-03-05T10:55:28.596Z,7.57
2023-03-05T10:57:06.395Z,9.50
2023-03-05T10:58:39.140Z,8.68
2023-03-05T11:00:20.829Z,10.07
2023-03-05T11:02:05.117Z,7.53
2023-03-05T11:03:49.797Z,9.02
2023-03-05T11:05:40.821Z,8.10
2023-03-05T11:07:33.529Z,8.90
2023-03-05T11:09:19.784Z,7.72
2023-03-05T11:11:04.699Z,8.88
2023-03-05T11:12:39.021Z,11.10
2023-03-05T11:14:29.926Z,7.05
2023-03-05T11:16:03.908Z,7.68
2023-03-05T11:17:39.596Z,7.75
2023-03-05T11:19:19.070Z,6.32
2023-03-05T11:20:51.975Z,7.20
2023-03-05T11:22:26.310Z,5.80
2023-03-05T11:24:07.428Z,15.13
2023-03-05T11:25:59.273Z,6.30
2023-03-05T11:27:36.415Z,8.68
2023-03-05T11:29:19.331Z,6.63
2023-03-05T11:30:57.818Z,7.82
2023-03-05T11:32:31.433Z,6.90
2023-03-05T11:34:05.891Z,7.97
2023-03-05T11:35:40.866Z,6.20
2023-03-05T11:37:24.404Z,8.57
2023-03-05T11:38:59.673Z,6.40
2023-03-05T11:40:35.613Z,8.15
2023-03-05T11:42:15.262Z,6.63
2023-03-05T11:43:49.187Z,8.07
2023-03-05T11:45:23.076Z,9.10
2023-03-05T11:47:00.551Z,10.10
2023-03-05T11:48:37.720Z,6.45
2023-03-05T11:50:21.210Z,6.93
2023-03-05T11:52:01.537Z,9.73
2023-03-05T11:53:36.797Z,6.95
2023-03-05T11:55:15.693Z,9.23
2023-03-05T11:56:49.291Z,9.40
2023-03-05T11:58:35.070Z,6.30
2023-03-05T12:00:12.298Z,9.43
2023-03-05T12:01:47.848Z,11.23
2023-03-05T12:03:22.605Z,11.30
2023-03-05T12:04:55.964Z,13.43
2023-03-05T12:06:34.830Z,10.27
2023-03-05T12:08:12.649Z,7.43
2023-03-05T12:09:49.271Z,8.18
2023-03-05T12:11:26.224Z,6.75
2023-03-05T12:13:05.874Z,8.27
2023-03-05T12:14:46.480Z,8.25
2023-03-05T12:16:35.830Z,8.73
2023-03-05T12:18:18.879Z,8.68
2023-03-05T12:19:58.365Z,9.25
2023-03-05T12:21:36.766Z,8.93
2023-03-05T12:23:14.362Z,7.38
2023-03-05T12:24:47.640Z,10.75
2023-03-05T12:26:57.783Z,9.75
2023-03-05T12:28:58.502Z,7.72
2023-03-05T12:30:59.199Z,7.60
2023-03-05T12:33:02.189Z,8.50
2023-03-05T12:34:48.354Z,8.30
2023-03-05T12:36:39.837Z,7.45
2023-03-05T12:38:32.224Z,8.25
2023-03-05T12:40:21.717Z,9.45
2023-03-05T12:41:56.460Z,6.93
2023-03-05T12:43:31.551Z,10.52
2023-03-05T12:45:26.833Z,9.10
2023-03-05T12:47:23.375Z,10.10
2023-03-05T12:48:56.212Z,5.93
2023-03-05T12:50:49.508Z,5.63
2023-03-05T12:52:26.004Z,8.07
2023-03-05T12:54:20.505Z,7.88
2023-03-05T12:56:00.084Z,6.85
2023-03-05T12:57:33.900Z,8.98
2023-03-05T12:59:06.927Z,8.70
2023-03-05T13:00:44.913Z,7.93
2023-03-05T13:02:28.358Z,8.95
2023-03-05T13:04:09.580Z,7.10
2023-03-05T13:05:50.542Z,7.55
2023-03-05T13:07:23.247Z,7.57
2023-03-05T13:09:01.359Z,6.10
2023-03-05T13:10:34.091Z,6.05
2023-03-05T13:12:14.265Z,5.10
2023-03-05T13:13:49.093Z,5.60
2023-03-05T13:15:23.754Z,4.95
2023-03-05T13:16:56.681Z,7.07
2023-03-05T13:18:32.564Z,6.80
2023-03-05T13:20:31.352Z,7.93
2023-03-05T13:22:11.691Z,6.35
2023-03-05T13:23:47.801Z,6.13
2023-03-05T13:25:20.939Z,6.70
2023-03-05T13:26:53.776Z,5.95
2023-03-05T13:28:25.959Z,7.82
2023-03-05T13:29:58.671Z,7.10
2023-03-05T13:31:32.179Z,9.13
2023-03-05T13:33:06.768Z,5.40
2023-03-05T13:34:48.115Z,6.53
2023-03-05T13:36:22.186Z,6.32
2023-03-05T13:37:55.093Z,6.60
2023-03-05T13:39:29.918Z,6.95
2023-03-05T13:41:08.794Z,6.47
2023-03-05T13:42:41.531Z,7.15
2023-03-05T13:44:22.522Z,7.47
2023-03-05T13:45:57.926Z,65.68
2023-03-05T13:47:33.546Z,11.73
2023-03-05T13:49:20.411Z,6.40
2023-03-05T13:50:57.830Z,8.88
2023-03-05T13:52:32.802Z,6.10
2023-03-05T13:54:08.474Z,7.82
2023-03-05T13:55:41.679Z,5.68
2023-03-05T13:57:35.383Z,7.53
2023-03-05T13:59:18.738Z,6.68
2023-03-05T14:01:05.856Z,7.43
2023-03-05T14:02:44.182Z,6.78
2023-03-05T14:04:22.213Z,7.10
2023-03-05T14:05:56.586Z,6.47
2023-03-05T14:07:33.713Z,8.90
2023-03-05T14:09:10.172Z,6.65
2023-03-05T14:10:43.010Z,9.80
2023-03-05T14:12:27.401Z,7.63
2023-03-05T14:14:07.500Z,10.77
2023-03-05T14:15:40.720Z,7.25
2023-03-05T14:17:32.925Z,7.45
2023-03-05T14:19:07.185Z,6.07
2023-03-05T14:20:41.015Z,14.88
2023-03-05T14:24:22.611Z,8.48
2023-03-05T14:26:18.483Z,6.75
2023-03-05T14:27:51.216Z,8.52
2023-03-05T14:29:26.246Z,7.60
2023-03-05T14:30:59.131Z,8.15
2023-03-05T14:32:34.493Z,7.50
2023-03-05T14:34:08.626Z,7.40
2023-03-05T14:35:41.549Z,6.88
2023-03-05T14:37:22.752Z,7.18
2023-03-05T14:38:56.769Z,6.90
2023-03-05T14:40:32.688Z,8.77
2023-03-05T14:42:31.171Z,9.15
2023-03-05T14:44:11.503Z,7.47
2023-03-05T14:45:44.903Z,8.15
2023-03-05T14:47:17.639Z,6.65
2023-03-05T14:48:50.456Z,6.78
2023-03-05T14:50:24.877Z,8.48
2023-03-05T14:51:58.078Z,7.25
2023-03-05T14:53:36.716Z,5.95
2023-03-05T14:55:15.640Z,6.10
2023-03-05T14:56:50.512Z,6.78
2023-03-05T14:58:25.974Z,9.43
2023-03-05T14:59:58.685Z,9.20
2023-03-05T15:01:31.425Z,8.00
2023-03-05T15:03:04.488Z,10.02
2023-03-05T15:04:37.199Z,10.27
2023-03-05T15:06:19.183Z,7.63
2023-03-05T15:07:53.152Z,7.88
2023-03-05T15:09:26.711Z,7.10
2023-03-05T15:11:00.086Z,10.75
2023-03-05T15:12:34.196Z,8.75
2023-03-05T15:14:06.910Z,6.25
2023-03-05T15:15:40.569Z,6.75
2023-03-05T15:17:18.940Z,7.57
2023-03-05T15:18:51.786Z,5.53
2023-03-05T15:20:26.901Z,10.02
2023-03-05T15:21:59.826Z,7.50
2023-03-05T15:23:36.497Z,6.38
2023-03-05T15:25:10.067Z,8.35
2023-03-05T15:26:42.784Z,8.10
2023-03-05T15:28:17.452Z,6.03
2023-03-05T15:29:50.152Z,8.60
2023-03-05T15:31:23.016Z,9.27
2023-03-05T15:32:57.351Z,7.07
2023-03-05T15:34:30.410Z,8.50
2023-03-05T15:36:03.567Z,7.22
2023-03-05T15:37:36.285Z,8.82
2023-03-05T15:39:08.995Z,8.02
2023-03-05T15:40:41.711Z,8.35
2023-03-05T15:42:14.485Z,7.00
2023-03-05T15:43:48.555Z,6.65
2023-03-05T15:45:21.519Z,6.88
2023-03-05T15:46:56.533Z,8.05
2023-03-05T15:48:29.227Z,8.68
2023-03-05T15:50:01.999Z,9.13
2023-03-05T15:51:34.707Z,6.57
2023-03-05T15:53:07.943Z,7.53
2023-03-05T15:54:40.725Z,9.00
2023-03-05T15:56:17.501Z,8.60
2023-03-05T15:57:52.308Z,8.70
2023-03-05T15:59:26.633Z,9.32
2023-03-05T16:01:00.180Z,11.07
2023-03-05T16:02:32.958Z,9.85
2023-03-05T16:04:06.027Z,10.35
2023-03-05T16:05:39.467Z,9.48
2023-03-05T16:07:14.041Z,10.35
2023-03-05T16:08:47.661Z,9.50
2023-03-05T16:10:23.926Z,9.20
2023-03-05T16:11:57.032Z,8.15
2023-03-05T16:13:29.722Z,7.57
2023-03-05T16:15:04.116Z,7.47
2023-03-05T16:16:37.327Z,8.85
2023-03-05T16:18:13.223Z,7.03
2023-03-05T16:19:50.165Z,10.07
2023-03-05T16:21:22.904Z,7.53
2023-03-05T16:22:55.611Z,8.20
2023-03-05T16:24:28.319Z,6.90
2023-03-05T16:26:01.070Z,7.88
2023-03-05T16:27:33.793Z,7.25
2023-03-05T16:29:06.797Z,7.35
2023-03-05T16:30:40.930Z,8.57
2023-03-05T16:32:13.666Z,6.68
2023-03-05T16:33:46.420Z,7.43
2023-03-05T16:35:19.286Z,7.50
2023-03-05T16:36:53.521Z,8.20
2023-03-05T16:38:26.216Z,6.65
2023-03-05T16:39:59.992Z,7.35
2023-03-05T16:41:33.453Z,7.72
2023-03-05T16:43:06.221Z,8.32
2023-03-05T16:44:38.912Z,9.45
2023-03-05T16:46:14.447Z,9.32
2023-03-05T16:47:47.223Z,8.20
2023-03-05T16:49:20.474Z,8.45
2023-03-05T16:50:53.173Z,7.85
2023-03-05T16:52:26.147Z,8.20
2023-03-05T16:53:58.847Z,8.32
2023-03-05T16:55:31.529Z,7.35
2023-03-05T16:57:05.203Z,9.88
2023-03-05T16:58:40.465Z,8.55
2023-03-05T17:00:14.357Z,7.55
2023-03-05T17:01:48.387Z,7.90
2023-03-05T17:03:21.256Z,7.20
2023-03-05T17:04:55.870Z,7.38
2023-03-05T17:06:31.620Z,8.15
2023-03-05T17:08:05.067Z,6.40
2023-03-05T17:09:38.293Z,5.80
2023-03-05T17:11:12.522Z,6.10
2023-03-05T17:12:47.341Z,7.53
2023-03-05T17:14:20.101Z,6.97
2023-03-05T17:15:56.214Z,7.07
2023-03-05T17:17:31.777Z,7.00
2023-03-05T17:19:04.559Z,7.35
2023-03-05T17:20:36.476Z,7.55
2023-03-05T17:22:10.424Z,8.02
2023-03-05T17:23:43.249Z,7.63
2023-03-05T17:25:15.945Z,11.50
2023-03-05T17:26:48.639Z,21.73
2023-03-05T17:28:21.439Z,24.75
2023-03-05T17:29:54.390Z,31.80
2023-03-05T17:31:27.191Z,24.48
2023-03-05T17:33:01.280Z,14.70
2023-03-05T17:34:36.883Z,24.92
2023-03-05T17:36:14.905Z,33.15
2023-03-05T17:37:47.785Z,38.85
2023-03-05T17:39:20.623Z,24.77
2023-03-05T17:40:53.403Z,22.30
2023-03-05T17:42:26.191Z,21.95
2023-03-05T17:43:58.914Z,18.75
2023-03-05T17:45:32.223Z,9.60
2023-03-05T17:47:05.497Z,9.70
2023-03-05T17:48:39.690Z,11.63
2023-03-05T17:50:14.938Z,14.15
2023-03-05T17:51:47.701Z,12.00
2023-03-05T17:53:20.865Z,11.98
2023-03-05T17:54:53.841Z,8.20
2023-03-05T17:56:26.973Z,9.23
2023-03-05T17:58:00.130Z,8.48
2023-03-05T17:59:32.815Z,6.85
2023-03-05T18:01:06.493Z,5.75
2023-03-05T18:02:39.346Z,6.90
2023-03-05T18:04:15.186Z,6.45
2023-03-05T18:05:47.972Z,6.40
2023-03-05T18:07:20.683Z,7.10
2023-03-05T18:08:53.398Z,5.22
2023-03-05T18:10:27.467Z,6.38
2023-03-05T18:12:00.527Z,5.70
2023-03-05T18:13:33.275Z,6.40
2023-03-05T18:15:07.193Z,5.85
2023-03-05T18:16:39.983Z,7.05
2023-03-05T18:18:12.761Z,7.50
2023-03-05T18:19:46.964Z,8.15
2023-03-05T18:21:21.179Z,9.07
2023-03-05T18:22:54.033Z,8.20
2023-03-05T18:24:26.788Z,7.20
2023-03-05T18:25:59.557Z,6.57
2023-03-05T18:27:32.257Z,7.07
2023-03-05T18:29:04.978Z,8.68
2023-03-05T18:30:40.433Z,6.35
2023-03-05T18:32:13.204Z,6.45
2023-03-05T18:33:46.038Z,7.72
2023-03-05T18:35:20.428Z,6.55
2023-03-05T18:36:53.862Z,8.63
2023-03-05T18:38:29.642Z,8.95
2023-03-05T18:40:03.100Z,6.55
2023-03-05T18:41:36.962Z,8.18
2023-03-05T18:43:11.112Z,7.43
2023-03-05T18:44:44.072Z,7.53
2023-03-05T18:46:17.021Z,6.38
2023-03-05T18:47:53.916Z,8.13
2023-03-05T18:49:27.302Z,9.93
2023-03-05T18:51:02.205Z,7.38
2023-03-05T18:52:34.967Z,9.65
2023-03-05T18:54:08.102Z,6.68
2023-03-05T18:55:42.621Z,8.05
2023-03-05T18:57:15.309Z,8.05
2023-03-05T18:58:48.285Z,12.63
2023-03-05T19:00:23.474Z,8.00
2023-03-05T19:01:56.228Z,8.55
2023-03-05T19:03:28.916Z,9.68
2023-03-05T19:05:02.680Z,8.43
2023-03-05T19:06:38.234Z,7.72
2023-03-05T19:08:11.854Z,9.48
2023-03-05T19:09:52.178Z,9.77
2023-03-05T19:11:25.320Z,9.43
2023-03-05T19:13:07.899Z,7.88
2023-03-05T19:14:40.603Z,9.15
2023-03-05T19:16:16.801Z,7.47
2023-03-05T19:17:50.351Z,8.23
2023-03-05T19:19:24.488Z,7.25
2023-03-05T19:20:57.391Z,9.30
2023-03-05T19:22:32.371Z,7.47
2023-03-05T19:24:05.454Z,6.65
2023-03-05T19:25:38.290Z,8.07
2023-03-05T19:27:11.531Z,7.07
2023-03-05T19:28:44.335Z,10.05
2023-03-05T19:30:17.942Z,10.60
2023-03-05T19:31:51.179Z,7.40
2023-03-05T19:33:25.034Z,10.43
2023-03-05T19:34:59.112Z,10.10
2023-03-05T19:36:32.126Z,11.02
2023-03-05T19:38:06.141Z,9.13
2023-03-05T19:39:38.883Z,9.20
2023-03-05T19:41:12.908Z,8.70
2023-03-05T19:42:45.637Z,10.13
2023-03-05T19:44:19.183Z,10.80
2023-03-05T19:45:51.936Z,9.35
2023-03-05T19:47:25.876Z,8.10
2023-03-05T19:48:58.821Z,10.48
2023-03-05T19:50:33.549Z,7.55
2023-03-05T19:52:07.421Z,6.93
2023-03-05T19:53:42.528Z,11.20
2023-03-05T19:55:15.317Z,7.40
2023-03-05T19:56:50.085Z,7.85
2023-03-05T19:58:23.034Z,7.47
2023-03-05T19:59:55.779Z,7.20
2023-03-05T20:01:28.841Z,8.82
2023-03-05T20:03:01.614Z,7.75
2023-03-05T20:04:34.324Z,6.00
2023-03-05T20:06:08.119Z,10.68
2023-03-05T20:07:40.818Z,7.78
2023-03-05T20:09:16.175Z,7.72
2023-03-05T20:10:49.006Z,9.30
2023-03-05T20:12:21.825Z,8.02
2023-03-05T20:13:54.915Z,10.10
2023-03-05T20:15:29.207Z,7.57
2023-03-05T20:17:01.978Z,7.50
2023-03-05T20:18:34.759Z,8.60
2023-03-05T20:20:08.694Z,7.80
2023-03-05T20:21:42.173Z,8.30
2023-03-05T20:23:14.862Z,6.03
2023-03-05T20:24:48.877Z,7.15
2023-03-05T20:26:23.072Z,6.97
2023-03-05T20:27:55.791Z,7.57
2023-03-05T20:29:28.521Z,7.18
2023-03-05T20:31:02.328Z,6.70
2023-03-05T20:32:35.073Z,7.60
2023-03-05T20:34:10.170Z,7.30
2023-03-05T20:35:42.926Z,7.03
2023-03-05T20:37:15.640Z,8.50
2023-03-05T20:38:47.460Z,8.68
2023-03-05T20:40:21.515Z,7.22
2023-03-05T20:41:54.230Z,7.43
2023-03-05T20:43:28.879Z,6.85
2023-03-05T20:45:01.726Z,7.32